Time;durP1;ratioP1;P1;durP2;ratioP2;P2;SDS_P1;SDS_P2;PMS_P1;PMS_P2;Temp;Humidity;BMP_temperature;BMP_pressure;BME280_temperature;BME280_humidity;BME280_pressure;Samples;Min_cycle;Max_cycle;Signal;HPM_P1;HPM_P2
2021/12/26 00:02:09;;;;;;;0.80;0.40;;;-1.00;98.50;;;;;;6166366;23;20043;-88
2021/12/26 00:05:01;;;;;;;1.77;0.60;;;-0.90;99.90;;;;;;6188838;23;20028;-89
2021/12/26 00:08:04;;;;;;;1.00;0.37;;;-0.80;99.90;;;;;;6164842;23;20103;-87
2021/12/26 00:11:19;;;;;;;1.73;0.53;;;-0.90;79.30;;;;;;6194250;23;20036;-88
2021/12/26 00:15:06;;;;;;;1.20;0.37;;;-1.10;81.60;;;;;;6080733;23;20026;-89
2021/12/26 00:18:37;;;;;;;0.87;0.33;;;-1.10;97.90;;;;;;6076904;23;20501;-88
2021/12/26 00:21:47;;;;;;;2.90;0.77;;;-0.80;98.70;;;;;;6069627;23;20029;-88
2021/12/26 00:24:35;;;;;;;0.80;0.40;;;-0.80;99.90;;;;;;6091641;23;20019;-89
2021/12/26 00:27:25;;;;;;;1.53;0.47;;;-1.30;67.20;;;;;;6071519;23;20014;-91
2021/12/26 00:30:25;;;;;;;0.47;0.22;;;-1.10;99.90;;;;;;6092012;23;20022;-90
2021/12/26 00:33:22;;;;;;;3.80;0.67;;;-1.20;68.70;;;;;;6169023;23;20461;-90
2021/12/26 00:36:13;;;;;;;1.87;0.80;;;-1.40;68.00;;;;;;6170678;23;20456;-90
2021/12/26 00:39:02;;;;;;;;;;;;;;;;;;;;;
2021/12/26 00:42:09;;;;;;;3.03;0.60;;;-1.40;99.90;;;;;;6217007;23;20031;-89
2021/12/26 00:44:54;;;;;;;1.45;0.73;;;-0.90;99.90;;;;;;6190924;23;20017;-89
2021/12/26 00:47:40;;;;;;;1.10;0.47;;;-1.00;99.90;;;;;;6193613;23;20092;-87
2021/12/26 00:50:44;;;;;;;2.88;0.60;;;-1.20;67.10;;;;;;6168497;23;20347;-87
2021/12/26 00:53:28;;;;;;;0.53;0.40;;;-1.20;90.90;;;;;;6167515;23;20099;-91
2021/12/26 00:56:18;;;;;;;3.67;0.63;;;-1.10;99.90;;;;;;6192901;23;20013;-89
2021/12/26 00:59:01;;;;;;;2.07;0.50;;;-1.30;70.40;;;;;;6190239;23;20406;-88
2021/12/26 01:01:44;;;;;;;5.10;1.15;;;-1.10;91.30;;;;;;6214083;23;20017;-88
2021/12/26 01:04:24;;;;;;;0.70;0.40;;;-1.60;68.40;;;;;;6192062;23;20013;-90
2021/12/26 01:10:41;;;;;;;2.50;0.60;;;-1.10;99.90;;;;;;6181329;23;20024;-90
2021/12/26 01:13:39;;;;;;;2.30;0.97;;;-0.90;99.90;;;;;;6193607;23;20025;-88
2021/12/26 01:16:34;;;;;;;1.97;0.70;;;-1.20;84.80;;;;;;6195843;23;20025;-89
2021/12/26 01:19:16;;;;;;;0.77;0.40;;;-1.10;91.00;;;;;;6216806;23;20040;-87
2021/12/26 01:22:02;;;;;;;2.60;0.57;;;-0.80;99.90;;;;;;6192251;23;20075;-88
2021/12/26 01:24:55;;;;;;;1.00;0.50;;;-0.90;99.40;;;;;;6215963;23;20021;-87
2021/12/26 01:27:29;;;;;;;3.20;0.80;;;-1.10;99.90;;;;;;6216822;23;20016;-89
2021/12/26 01:30:14;;;;;;;2.00;0.30;;;-0.80;99.90;;;;;;6215129;23;20520;-87
2021/12/26 01:32:50;;;;;;;2.00;0.77;;;-1.20;99.90;;;;;;6215602;23;20711;-87
2021/12/26 01:35:38;;;;;;;1.40;0.67;;;-1.40;79.00;;;;;;6194318;23;20044;-88
2021/12/26 01:38:23;;;;;;;1.97;0.67;;;-1.50;97.20;;;;;;6193177;23;20044;-88
2021/12/26 01:41:20;;;;;;;1.73;0.60;;;-1.40;81.30;;;;;;6215502;23;20019;-88
2021/12/26 01:44:11;;;;;;;1.00;0.77;;;-1.40;93.10;;;;;;6216038;23;20332;-90
2021/12/26 01:46:49;;;;;;;0.70;0.30;;;-1.40;85.20;;;;;;6215525;23;20055;-90
2021/12/26 01:49:30;;;;;;;2.83;0.50;;;-1.30;94.30;;;;;;6216437;23;20039;-89
2021/12/26 01:52:03;;;;;;;2.07;0.40;;;-1.20;99.60;;;;;;6191107;23;20033;-88
2021/12/26 01:55:00;;;;;;;1.47;0.50;;;-1.30;99.90;;;;;;6216406;23;20016;-89
2021/12/26 01:57:34;;;;;;;1.70;0.40;;;-1.50;73.20;;;;;;6214975;23;20020;-87
2021/12/26 02:00:07;;;;;;;;;;;-1.30;90.60;;;;;;6216055;23;20020;-89
2021/12/26 02:02:45;;;;;;;2.67;0.50;;;-1.00;99.90;;;;;;6216628;23;19995;-87
2021/12/26 02:05:19;;;;;;;1.30;0.70;;;-1.30;93.80;;;;;;6214023;23;20399;-89
2021/12/26 02:08:05;;;;;;;0.55;0.30;;;-1.10;99.90;;;;;;6192523;23;20048;-88
2021/12/26 02:10:47;;;;;;;2.40;0.43;;;-1.10;99.90;;;;;;6193301;23;20370;-87
2021/12/26 02:13:28;;;;;;;1.70;0.40;;;-0.90;99.90;;;;;;6215696;23;20020;-88
2021/12/26 02:16:08;;;;;;;1.90;0.37;;;-0.80;99.90;;;;;;6215321;23;20111;-85
2021/12/26 02:18:40;;;;;;;1.67;0.50;;;-0.90;99.90;;;;;;6191183;23;20016;-90
2021/12/26 02:21:28;;;;;;;1.77;0.50;;;-1.00;99.90;;;;;;6214675;23;20071;-87
2021/12/26 02:29:52;;;;;;;2.33;0.50;;;-1.10;99.90;;;;;;6216511;23;20017;-87
2021/12/26 02:32:25;;;;;;;0.43;0.13;;;-1.00;99.90;;;;;;6214616;23;20084;-89
2021/12/26 02:35:05;;;;;;;0.87;0.40;;;-0.90;99.90;;;;;;6216285;23;20020;-90
2021/12/26 02:37:39;;;;;;;4.27;1.20;;;-0.80;99.90;;;;;;6190596;23;20445;-91
2021/12/26 02:40:13;;;;;;;4.03;0.63;;;-1.10;99.90;;;;;;6214628;23;20016;-88
2021/12/26 02:42:49;;;;;;;2.93;0.50;;;-1.10;90.90;;;;;;6190373;23;20445;-88
2021/12/26 02:45:32;;;;;;;1.03;0.53;;;-1.00;99.90;;;;;;6214676;23;20353;-87
2021/12/26 02:48:08;;;;;;;1.30;0.60;;;-1.10;99.90;;;;;;6214229;23;20028;-89
2021/12/26 02:50:46;;;;;;;1.27;0.40;;;-1.20;99.30;;;;;;6216112;23;20020;-89
2021/12/26 02:53:20;;;;;;;5.80;0.90;;;-1.30;87.90;;;;;;6213838;23;20453;-88
2021/12/26 02:55:54;;;;;;;1.63;0.60;;;-1.30;99.90;;;;;;6215522;23;20016;-90
2021/12/26 02:58:26;;;;;;;0.93;0.50;;;-1.10;99.90;;;;;;6190808;23;20344;-89
2021/12/26 03:01:15;;;;;;;1.70;0.60;;;-1.20;94.00;;;;;;6216674;23;20445;-90
2021/12/26 03:03:45;;;;;;;;;;;-1.10;99.90;;;;;;6215767;23;20067;-87
2021/12/26 03:07:01;;;;;;;2.70;0.53;;;-1.00;99.90;;;;;;6215243;23;19916;-89
2021/12/26 03:09:15;;;;;;;1.47;0.70;;;-0.90;99.90;;;;;;6211096;23;20025;-88
2021/12/26 03:11:49;;;;;;;1.88;0.77;;;-1.00;99.90;;;;;;6190228;23;20115;-90
2021/12/26 03:14:22;;;;;;;1.20;0.63;;;-1.10;99.90;;;;;;6214620;23;20044;-86
2021/12/26 03:16:54;;;;;;;1.40;0.57;;;-0.90;99.90;;;;;;6214288;23;20013;-88
2021/12/26 03:19:28;;;;;;;1.33;0.83;;;-1.00;99.90;;;;;;6213370;23;20330;-88
2021/12/26 03:22:00;;;;;;;1.63;0.90;;;-1.10;99.90;;;;;;6214702;23;20516;-90
2021/12/26 03:24:32;;;;;;;2.47;0.97;;;-1.30;94.80;;;;;;6190580;23;20022;-89
2021/12/26 03:27:05;;;;;;;1.10;0.50;;;-1.30;90.00;;;;;;6190545;23;20025;-89
2021/12/26 03:29:38;;;;;;;2.13;0.70;;;-1.20;99.90;;;;;;6215040;23;20079;-87
2021/12/26 03:32:20;;;;;;;0.90;0.40;;;-1.00;99.90;;;;;;6215166;23;20345;-87
2021/12/26 03:34:50;;;;;;;1.33;0.60;;;-1.10;99.90;;;;;;6215027;23;20025;-86
2021/12/26 03:37:23;;;;;;;1.03;0.50;;;-1.30;95.90;;;;;;6190114;23;20019;-87
2021/12/26 03:39:54;;;;;;;6.30;0.90;;;-1.30;99.90;;;;;;6214131;23;20040;-87
2021/12/26 03:42:34;;;;;;;1.33;0.63;;;-1.40;82.30;;;;;;6190982;23;20017;-88
2021/12/26 03:45:06;;;;;;;1.23;0.80;;;-1.50;99.60;;;;;;6214699;23;20040;-87
2021/12/26 03:47:41;;;;;;;3.20;0.80;;;-1.50;76.20;;;;;;6216157;23;20108;-89
2021/12/26 03:50:26;;;;;;;1.63;0.60;;;-1.40;99.90;;;;;;6191018;23;20021;-87
2021/12/26 03:53:02;;;;;;;2.80;0.70;;;-1.50;99.40;;;;;;6213324;23;20112;-87
2021/12/26 03:55:32;;;;;;;1.37;0.53;;;-1.50;99.90;;;;;;6214954;23;20094;-88
2021/12/26 03:58:03;;;;;;;4.90;1.13;;;-1.30;97.80;;;;;;6214995;23;20021;-87
2021/12/26 04:00:37;;;;;;;2.45;0.65;;;-1.30;98.20;;;;;;6192091;23;20096;-87
2021/12/26 04:03:14;;;;;;;2.83;0.67;;;-1.40;97.10;;;;;;6192814;23;20021;-87
2021/12/26 04:06:07;;;;;;;0.97;0.43;;;-1.40;97.10;;;;;;6215789;23;20021;-88
2021/12/26 04:08:46;;;;;;;4.67;0.97;;;-1.50;99.90;;;;;;6193128;23;20027;-89
2021/12/26 04:11:19;;;;;;;2.50;0.70;;;-1.30;99.90;;;;;;6191124;23;20044;-87
2021/12/26 04:13:52;;;;;;;1.40;0.63;;;-1.50;93.40;;;;;;6218182;23;20234;-88
2021/12/26 04:16:31;;;;;;;1.70;0.60;;;-1.40;99.90;;;;;;6193164;23;20017;-90
2021/12/26 04:19:16;;;;;;;2.00;1.00;;;-1.20;99.90;;;;;;6192174;23;20016;-89
2021/12/26 04:21:48;;;;;;;1.30;0.43;;;-1.60;90.00;;;;;;6191696;23;20012;-90
2021/12/26 04:24:36;;;;;;;3.63;1.00;;;-1.30;99.90;;;;;;6193812;23;20024;-87
2021/12/26 04:27:11;;;;;;;;;;;-1.30;99.90;;;;;;6216629;23;20441;-88
2021/12/26 04:29:48;;;;;;;1.90;0.70;;;-1.20;99.90;;;;;;6193315;23;19922;-90
2021/12/26 04:32:33;;;;;;;2.47;1.17;;;-1.20;99.90;;;;;;6216425;23;20024;-89
2021/12/26 04:35:10;;;;;;;3.37;0.70;;;-1.30;99.90;;;;;;6217929;23;20016;-89
2021/12/26 04:37:45;;;;;;;1.40;0.70;;;-1.30;99.90;;;;;;6216442;23;20016;-90
2021/12/26 04:40:21;;;;;;;2.30;0.70;;;-1.30;99.90;;;;;;6215593;23;20017;-89
2021/12/26 04:43:15;;;;;;;3.30;0.97;;;-1.30;99.90;;;;;;6210351;23;20052;-90
2021/12/26 04:46:12;;;;;;;1.87;0.33;;;-1.30;99.90;;;;;;6197143;23;20036;-89
2021/12/26 04:49:04;;;;;;;2.00;0.73;;;-1.20;99.90;;;;;;6195733;23;20324;-87
2021/12/26 04:51:41;;;;;;;2.13;0.93;;;-1.10;99.90;;;;;;6193010;23;20016;-87
2021/12/26 04:54:12;;;;;;;0.95;0.60;;;-1.40;92.20;;;;;;6216410;23;20028;-87
2021/12/26 04:56:46;;;;;;;3.17;0.80;;;-1.60;95.00;;;;;;6190971;23;20016;-89
2021/12/26 04:59:23;;;;;;;2.07;1.00;;;-1.50;99.90;;;;;;6137330;23;20020;-89
2021/12/26 05:02:01;;;;;;;1.20;0.47;;;-1.70;88.30;;;;;;6161839;23;20016;-89
2021/12/26 05:04:33;;;;;;;1.33;0.93;;;-1.70;99.90;;;;;;6160153;23;20071;-88
2021/12/26 05:07:26;;;;;;;1.10;0.40;;;-1.60;99.90;;;;;;6187184;23;20507;-88
2021/12/26 05:10:00;;;;;;;2.23;0.73;;;-1.40;99.90;;;;;;6160628;23;20109;-89
2021/12/26 05:12:37;;;;;;;2.33;0.83;;;-1.30;99.90;;;;;;6162595;23;20044;-89
2021/12/26 05:15:21;;;;;;;0.93;0.63;;;-1.50;98.30;;;;;;6162127;23;20027;-88
2021/12/26 05:17:51;;;;;;;1.07;0.50;;;-1.60;99.90;;;;;;6160968;23;20009;-89
2021/12/26 05:20:32;;;;;;;3.80;0.93;;;-1.50;93.80;;;;;;6138606;23;20017;-88
2021/12/26 05:23:09;;;;;;;2.03;0.77;;;-1.40;99.90;;;;;;6137972;23;20100;-88
2021/12/26 05:25:51;;;;;;;2.17;0.93;;;-1.30;99.90;;;;;;6161173;23;20021;-87
2021/12/26 05:28:30;;;;;;;2.50;0.80;;;-1.40;99.90;;;;;;6138572;23;20068;-90
2021/12/26 05:31:06;;;;;;;4.50;1.03;;;-1.30;99.90;;;;;;6160506;23;20051;-87
2021/12/26 05:33:44;;;;;;;1.10;0.70;;;-1.50;93.00;;;;;;6137020;23;20020;-87
2021/12/26 05:36:17;;;;;;;2.03;0.90;;;-1.40;99.90;;;;;;6161079;23;20021;-88
2021/12/26 05:38:57;;;;;;;2.33;0.63;;;-1.50;99.90;;;;;;6160503;23;20025;-87
2021/12/26 05:41:32;;;;;;;1.70;0.90;;;-1.30;99.90;;;;;;6160841;23;20045;-87
2021/12/26 05:44:20;;;;;;;2.87;0.67;;;-1.50;99.90;;;;;;6139495;23;20017;-88
2021/12/26 05:46:54;;;;;;;1.87;0.80;;;-1.40;99.90;;;;;;6135927;23;20095;-87
2021/12/26 05:49:53;;;;;;;0.90;0.50;;;-1.40;98.50;;;;;;6186499;23;20029;-88
2021/12/26 05:52:27;;;;;;;1.30;0.50;;;-1.50;99.90;;;;;;6162563;23;20322;-88
2021/12/26 05:55:05;;;;;;;1.30;0.80;;;-1.50;99.90;;;;;;6160702;23;20029;-87
2021/12/26 05:57:44;;;;;;;1.23;0.73;;;-1.60;99.90;;;;;;6155946;23;20021;-87
2021/12/26 06:00:21;;;;;;;1.37;1.27;;;-1.60;99.90;;;;;;6191656;23;20031;-90
2021/12/26 06:03:01;;;;;;;2.10;0.63;;;-1.40;99.90;;;;;;6191719;23;20024;-88
2021/12/26 06:05:31;;;;;;;3.85;0.85;;;-1.30;99.90;;;;;;6215656;23;20024;-89
2021/12/26 06:08:06;;;;;;;1.23;0.60;;;-1.30;99.90;;;;;;6213503;23;20028;-87
2021/12/26 06:10:42;;;;;;;3.87;1.00;;;-1.30;99.90;;;;;;6215292;23;20099;-89
2021/12/26 06:13:17;;;;;;;2.27;0.83;;;-1.50;99.90;;;;;;6215223;23;20020;-91
2021/12/26 06:15:47;;;;;;;3.17;1.10;;;-1.70;99.90;;;;;;6190477;23;20020;-88
2021/12/26 06:18:20;;;;;;;4.63;1.17;;;-1.60;99.90;;;;;;6214163;23;20063;-88
2021/12/26 06:21:12;;;;;;;1.90;0.90;;;-1.30;99.90;;;;;;6216539;23;20057;-89
2021/12/26 06:23:50;;;;;;;4.57;0.75;;;-1.50;99.90;;;;;;6226409;23;20024;-88
2021/12/26 06:26:38;;;;;;;1.30;0.88;;;-1.70;99.90;;;;;;6215580;23;20502;-87
2021/12/26 06:29:28;;;;;;;1.77;0.73;;;-1.60;99.90;;;;;;6195002;23;20024;-88
2021/12/26 06:32:19;;;;;;;1.60;0.80;;;-1.60;99.90;;;;;;6216009;23;20051;-88
2021/12/26 06:35:24;;;;;;;0.93;0.57;;;-1.50;99.90;;;;;;6217570;23;20024;-91
2021/12/26 06:38:14;;;;;;;2.73;1.00;;;-1.40;99.90;;;;;;6218008;23;20028;-88
2021/12/26 06:41:04;;;;;;;1.90;0.70;;;-1.50;99.90;;;;;;6222653;23;20409;-88
2021/12/26 06:43:56;;;;;;;2.88;0.85;;;-1.30;99.90;;;;;;6214535;23;20030;-89
2021/12/26 06:47:04;;;;;;;3.13;0.80;;;-1.30;99.90;;;;;;6211588;23;20021;-89
2021/12/26 06:49:42;;;;;;;1.53;0.50;;;-1.50;99.90;;;;;;6214536;23;20025;-87
2021/12/26 06:52:19;;;;;;;0.77;0.50;;;-1.40;99.90;;;;;;6191517;23;20047;-87
2021/12/26 06:54:50;;;;;;;1.30;0.70;;;-1.20;99.90;;;;;;6215234;23;20341;-89
2021/12/26 06:57:24;;;;;;;3.27;1.10;;;-1.30;99.90;;;;;;6214723;23;20028;-89
2021/12/26 06:59:56;;;;;;;3.25;0.90;;;-1.40;99.90;;;;;;6189774;23;20020;-87
2021/12/26 07:02:28;;;;;;;3.23;1.30;;;-1.40;99.90;;;;;;6214786;23;20441;-89
2021/12/26 07:04:57;;;;;;;4.27;1.00;;;-1.60;99.90;;;;;;6214362;23;20017;-89
2021/12/26 07:07:42;;;;;;;2.20;0.93;;;-1.60;99.90;;;;;;6193087;23;20023;-89
2021/12/26 07:10:11;;;;;;;2.00;0.90;;;-1.70;99.90;;;;;;6189860;23;20095;-88
2021/12/26 07:12:43;;;;;;;1.73;1.13;;;-1.70;99.90;;;;;;6190525;23;20028;-90
2021/12/26 07:15:33;;;;;;;3.87;1.07;;;-1.80;99.50;;;;;;6194184;23;20025;-88
2021/12/26 07:18:02;;;;;;;1.73;0.90;;;-2.00;98.30;;;;;;6214456;23;20020;-88
2021/12/26 07:20:38;;;;;;;3.43;1.40;;;-1.80;99.90;;;;;;6214647;23;20039;-89
2021/12/26 07:23:30;;;;;;;4.13;0.77;;;-1.80;99.90;;;;;;6216106;23;20031;-90
2021/12/26 07:26:08;;;;;;;2.03;1.20;;;-1.80;99.90;;;;;;6214801;23;20392;-87
2021/12/26 07:28:38;;;;;;;4.03;1.00;;;-1.70;99.90;;;;;;6188678;23;20075;-87
2021/12/26 07:31:11;;;;;;;3.63;1.10;;;-1.70;99.90;;;;;;6214855;23;20016;-88
2021/12/26 07:33:48;;;;;;;2.00;1.30;;;-1.70;99.90;;;;;;6190614;23;20463;-87
2021/12/26 07:36:19;;;;;;;3.23;1.00;;;-2.00;96.90;;;;;;6217854;23;20047;-89
2021/12/26 07:39:18;;;;;;;2.53;1.10;;;-1.90;99.90;;;;;;6216680;23;20352;-89
2021/12/26 07:41:45;;;;;;;3.33;0.97;;;-1.70;99.90;;;;;;6216446;23;20070;-87
2021/12/26 07:44:34;;;;;;;3.97;1.50;;;-1.60;99.90;;;;;;6216439;23;20075;-89
2021/12/26 07:47:24;;;;;;;2.63;1.50;;;-1.70;99.90;;;;;;6200402;23;20395;-88
2021/12/26 07:50:01;;;;;;;3.97;0.90;;;-1.90;99.90;;;;;;6217442;23;20075;-87
2021/12/26 07:52:54;;;;;;;2.53;1.17;;;-1.80;99.90;;;;;;6217333;23;20031;-87
2021/12/26 07:55:48;;;;;;;2.10;0.90;;;-1.90;99.90;;;;;;6211307;23;20031;-88
2021/12/26 07:58:43;;;;;;;3.80;1.77;;;-1.60;99.90;;;;;;6167138;23;20096;-87
2021/12/26 08:01:32;;;;;;;1.93;0.97;;;-2.00;96.40;;;;;;6217854;23;20035;-87
2021/12/26 08:04:21;;;;;;;2.00;1.03;;;-1.60;99.90;;;;;;6218033;23;20106;-88
2021/12/26 08:07:14;;;;;;;3.93;1.60;;;-1.70;99.90;;;;;;6216465;23;20429;-87
2021/12/26 08:09:48;;;;;;;3.13;1.57;;;-1.70;99.90;;;;;;6215863;23;20009;-86
2021/12/26 08:12:23;;;;;;;4.83;1.10;;;-1.80;99.90;;;;;;6192975;23;20040;-89
2021/12/26 08:14:49;;;;;;;2.10;1.10;;;-1.90;99.90;;;;;;6216188;23;20008;-87
2021/12/26 08:17:26;;;;;;;2.23;0.90;;;-2.00;99.90;;;;;;6218264;23;20012;-89
2021/12/26 08:19:59;;;;;;;2.07;1.17;;;-1.70;99.90;;;;;;6191685;23;20020;-88
2021/12/26 08:22:33;;;;;;;2.00;0.67;;;-1.80;99.90;;;;;;6192584;23;20032;-88
2021/12/26 08:25:07;;;;;;;3.43;1.30;;;-1.50;99.90;;;;;;6191176;23;20028;-88
2021/12/26 08:27:42;;;;;;;4.88;1.80;;;-1.50;99.90;;;;;;6215101;23;20087;-88
2021/12/26 08:30:20;;;;;;;1.60;0.93;;;-1.90;99.90;;;;;;6216141;23;20017;-88
2021/12/26 08:32:59;;;;;;;2.80;1.30;;;-1.70;99.90;;;;;;6215693;23;20020;-88
2021/12/26 08:35:27;;;;;;;;;;;-1.70;99.90;;;;;;6216060;23;20027;-88
2021/12/26 08:37:59;;;;;;;5.53;1.33;;;-1.60;99.90;;;;;;6217444;23;19943;-87
2021/12/26 08:40:31;;;;;;;2.63;1.33;;;-2.00;99.00;;;;;;6215919;23;20496;-89
2021/12/26 08:43:07;;;;;;;3.43;1.80;;;-1.90;99.90;;;;;;6216872;23;20016;-87
2021/12/26 08:45:50;;;;;;;2.27;1.30;;;-2.00;99.90;;;;;;6190231;23;20016;-88
